Time;durP1;ratioP1;P1;durP2;ratioP2;P2;SDS_P1;SDS_P2;PMS_P1;PMS_P2;Temp;Humidity;BMP_temperature;BMP_pressure;BME280_temperature;BME280_humidity;BME280_pressure;Samples;Min_cycle;Max_cycle;Signal;HPM_P1;HPM_P2
2023/10/10 00:01:38;;;;;;;6.93;2.57;;;;;;;;;;5092971;28;20760;-79
2023/10/10 00:04:05;;;;;;;6.57;2.80;;;;;;;;;;5092816;28;20408;-78
2023/10/10 00:06:33;;;;;;;2.73;2.40;;;;;;;;;;5092366;28;20805;-78
2023/10/10 00:08:59;;;;;;;4.10;2.30;;;;;;;;;;5074602;28;20439;-79
2023/10/10 00:11:26;;;;;;;6.40;3.00;;;;;;;;;;5088393;28;20416;-79
2023/10/10 00:14:05;;;;;;;6.20;3.07;;;;;;;;;;5054444;28;20570;-79
2023/10/10 00:16:37;;;;;;;6.00;2.63;;;;;;;;;;5070382;28;20420;-79
2023/10/10 00:21:47;;;;;;;6.93;3.50;;;;;;;;;;5069183;28;20495;-79
2023/10/10 00:24:14;;;;;;;9.83;2.77;;;;;;;;;;5072035;28;20404;-79
2023/10/10 00:26:43;;;;;;;6.07;3.27;;;;;;;;;;5071931;28;20458;-79
2023/10/10 00:29:09;;;;;;;6.67;3.00;;;;;;;;;;5071943;28;20404;-79
2023/10/10 00:31:43;;;;;;;5.90;2.87;;;;;;;;;;5072256;28;20426;-80
2023/10/10 00:34:09;;;;;;;3.80;2.70;;;;;;;;;;5072430;28;20400;-80
2023/10/10 00:36:40;;;;;;;5.37;2.73;;;;;;;;;;5074201;28;20423;-79
2023/10/10 00:39:12;;;;;;;6.27;3.27;;;;;;;;;;5076061;28;20431;-80
2023/10/10 00:44:17;;;;;;;7.90;2.90;;;;;;;;;;5075898;28;20408;-80
2023/10/10 00:46:44;;;;;;;5.70;2.90;;;;;;;;;;5075745;28;20883;-79
2023/10/10 00:49:13;;;;;;;8.27;3.60;;;;;;;;;;5075831;28;20408;-81
2023/10/10 00:51:39;;;;;;;8.30;4.53;;;;;;;;;;5075414;28;20422;-79
2023/10/10 00:54:16;;;;;;;8.17;3.10;;;;;;;;;;5075718;28;20408;-80
2023/10/10 00:56:46;;;;;;;8.53;4.73;;;;;;;;;;5075467;28;20419;-79
2023/10/10 00:59:16;;;;;;;9.80;4.97;;;;;;;;;;5057541;28;20423;-79
2023/10/10 01:01:43;;;;;;;9.70;4.53;;;;;;;;;;5057570;28;20419;-80
2023/10/10 01:04:11;;;;;;;11.90;5.73;;;;;;;;;;5075531;28;20396;-79
2023/10/10 01:06:39;;;;;;;9.30;5.20;;;;;;;;;;5075033;28;20489;-80
2023/10/10 01:11:42;;;;;;;9.27;5.20;;;;;;;;;;5075367;28;20423;-80
2023/10/10 01:14:08;;;;;;;8.70;5.40;;;;;;;;;;5075353;28;20904;-80
2023/10/10 01:16:34;;;;;;;6.43;4.70;;;;;;;;;;5057212;28;20485;-79
2023/10/10 01:19:00;;;;;;;10.13;5.50;;;;;;;;;;5075325;28;20411;-79
2023/10/10 01:21:37;;;;;;;7.90;5.87;;;;;;;;;;5074867;28;20430;-79
2023/10/10 01:24:06;;;;;;;9.00;5.07;;;;;;;;;;5075219;28;20415;-79
2023/10/10 01:26:36;;;;;;;6.87;5.50;;;;;;;;;;5075169;28;20982;-80
2023/10/10 01:29:13;;;;;;;7.03;4.47;;;;;;;;;;5075004;28;20411;-79
2023/10/10 01:31:42;;;;;;;9.63;4.80;;;;;;;;;;5057131;28;20416;-80
2023/10/10 01:34:09;;;;;;;10.57;4.13;;;;;;;;;;5074967;28;20402;-78
2023/10/10 01:36:37;;;;;;;10.63;5.57;;;;;;;;;;5074536;28;20541;-79
2023/10/10 01:39:19;;;;;;;11.67;5.73;;;;;;;;;;5074867;28;20946;-79
2023/10/10 01:41:48;;;;;;;10.10;5.13;;;;;;;;;;5074810;28;20412;-79
2023/10/10 01:44:18;;;;;;;5.30;4.20;;;;;;;;;;5074696;28;20553;-79
2023/10/10 01:46:44;;;;;;;7.17;4.43;;;;;;;;;;5074426;28;20970;-79
2023/10/10 01:49:14;;;;;;;9.60;4.43;;;;;;;;;;5074036;28;20741;-79
2023/10/10 01:51:43;;;;;;;9.27;4.30;;;;;;;;;;5074217;28;20420;-79
2023/10/10 01:54:22;;;;;;;6.97;5.20;;;;;;;;;;5074563;28;20490;-79
2023/10/10 01:56:51;;;;;;;7.00;4.70;;;;;;;;;;5074351;28;20756;-80
2023/10/10 01:59:24;;;;;;;8.50;4.97;;;;;;;;;;5074527;28;20416;-79
2023/10/10 02:01:52;;;;;;;9.37;5.17;;;;;;;;;;5074390;28;20403;-78
2023/10/10 02:04:27;;;;;;;8.17;4.63;;;;;;;;;;5074398;28;20403;-80
2023/10/10 02:06:57;;;;;;;10.17;4.60;;;;;;;;;;5073953;28;20523;-80
2023/10/10 02:11:54;;;;;;;7.40;5.27;;;;;;;;;;5074261;28;20910;-79
2023/10/10 02:14:25;;;;;;;9.97;6.33;;;;;;;;;;5074261;28;20446;-79
2023/10/10 02:16:53;;;;;;;7.00;5.00;;;;;;;;;;5074206;28;20411;-78
2023/10/10 02:19:28;;;;;;;12.83;6.77;;;;;;;;;;5056262;28;20415;-79
2023/10/10 02:22:15;;;;;;;8.57;5.43;;;;;;;;;;5073698;28;20420;-79
2023/10/10 02:24:41;;;;;;;8.00;5.30;;;;;;;;;;5073790;28;20439;-79
2023/10/10 02:27:08;;;;;;;10.90;5.77;;;;;;;;;;5073722;28;20463;-79
2023/10/10 02:29:35;;;;;;;10.10;6.47;;;;;;;;;;5055958;28;20452;-79
2023/10/10 02:32:12;;;;;;;10.90;6.93;;;;;;;;;;5073863;28;20469;-78
2023/10/10 02:34:44;;;;;;;9.03;7.20;;;;;;;;;;5073869;28;20392;-79
2023/10/10 02:37:17;;;;;;;13.57;8.30;;;;;;;;;;5073455;28;20496;-79
2023/10/10 02:40:07;;;;;;;14.63;8.30;;;;;;;;;;5073716;28;20434;-79
2023/10/10 02:42:36;;;;;;;11.30;7.97;;;;;;;;;;5073611;28;20488;-79
2023/10/10 02:45:02;;;;;;;13.23;8.83;;;;;;;;;;5073512;28;20403;-79
2023/10/10 02:47:32;;;;;;;13.40;9.17;;;;;;;;;;5073490;28;20473;-79
2023/10/10 02:50:10;;;;;;;11.33;7.37;;;;;;;;;;5073436;28;20889;-79
2023/10/10 02:52:39;;;;;;;13.33;8.90;;;;;;;;;;5073208;28;20405;-79
2023/10/10 02:55:16;;;;;;;10.70;8.50;;;;;;;;;;5073384;28;20402;-79
2023/10/10 02:57:42;;;;;;;10.97;7.60;;;;;;;;;;5073118;28;20990;-79
2023/10/10 03:02:55;;;;;;;14.63;10.00;;;;;;;;;;5073197;28;20411;-79
2023/10/10 03:05:40;;;;;;;10.77;8.77;;;;;;;;;;5073148;28;20470;-79
2023/10/10 03:08:18;;;;;;;13.50;8.40;;;;;;;;;;5073211;28;20934;-79
2023/10/10 03:10:46;;;;;;;11.50;8.93;;;;;;;;;;5073173;28;20406;-79
2023/10/10 03:13:27;;;;;;;11.80;8.77;;;;;;;;;;5071724;28;20429;-79
2023/10/10 03:15:55;;;;;;;12.10;8.00;;;;;;;;;;5071266;28;20408;-79
2023/10/10 03:18:29;;;;;;;10.87;8.87;;;;;;;;;;5072713;28;20420;-79
2023/10/10 03:26:51;;;;;;;16.50;8.07;;;;;;;;;;5073066;28;20998;-79
2023/10/10 03:29:26;;;;;;;13.27;8.80;;;;;;;;;;5073021;28;20400;-79
2023/10/10 03:32:19;;;;;;;12.23;8.70;;;;;;;;;;5072870;28;20402;-79
2023/10/10 03:34:44;;;;;;;14.70;9.10;;;;;;;;;;5072661;28;20411;-79
2023/10/10 03:37:27;;;;;;;16.60;9.37;;;;;;;;;;5072531;28;20425;-79
2023/10/10 03:39:55;;;;;;;15.10;9.83;;;;;;;;;;5072847;28;20399;-79
2023/10/10 05:24:08;;;;;;;13.33;9.20;;;;;;;;;;5074511;28;20411;-78
2023/10/10 05:26:45;;;;;;;12.93;9.43;;;;;;;;;;5075001;28;20566;-78
2023/10/10 05:29:11;;;;;;;14.07;9.73;;;;;;;;;;5057152;28;20903;-78
2023/10/10 05:31:37;;;;;;;16.20;9.40;;;;;;;;;;5075057;28;20422;-78
2023/10/10 05:34:04;;;;;;;15.33;8.37;;;;;;;;;;5074956;28;20418;-78
2023/10/10 05:36:30;;;;;;;15.20;8.63;;;;;;;;;;5074452;28;20179;-78
2023/10/10 05:38:56;;;;;;;14.53;8.47;;;;;;;;;;5074935;28;20762;-78
2023/10/10 05:41:22;;;;;;;14.10;9.10;;;;;;;;;;5074870;28;20506;-80
2023/10/10 05:43:59;;;;;;;16.40;8.63;;;;;;;;;;5074752;28;20499;-79
2023/10/10 05:46:25;;;;;;;12.70;8.20;;;;;;;;;;5074609;28;20470;-79
2023/10/10 05:48:51;;;;;;;13.00;8.90;;;;;;;;;;5074650;28;20400;-79
2023/10/10 05:51:20;;;;;;;13.87;8.03;;;;;;;;;;5074263;28;20461;-80
2023/10/10 05:53:46;;;;;;;16.47;8.97;;;;;;;;;;5074680;28;20403;-80
2023/10/10 05:56:12;;;;;;;14.50;9.27;;;;;;;;;;5056539;28;20832;-78
2023/10/10 05:58:39;;;;;;;13.93;9.23;;;;;;;;;;5074267;28;20231;-78
2023/10/10 06:01:08;;;;;;;16.13;9.17;;;;;;;;;;5074451;28;20421;-78
2023/10/10 06:03:34;;;;;;;15.10;10.40;;;;;;;;;;5074341;28;20766;-79
2023/10/10 06:06:03;;;;;;;13.10;8.33;;;;;;;;;;5073786;28;20461;-79
2023/10/10 06:08:31;;;;;;;14.57;10.00;;;;;;;;;;5074227;28;20454;-77
2023/10/10 06:10:57;;;;;;;15.70;10.20;;;;;;;;;;5074219;28;20499;-77
2023/10/10 06:13:24;;;;;;;18.90;11.27;;;;;;;;;;5074205;28;20406;-77
2023/10/10 06:15:52;;;;;;;17.43;12.00;;;;;;;;;;5074198;28;20415;-77
2023/10/10 06:18:18;;;;;;;18.30;11.50;;;;;;;;;;5074051;28;20400;-78
2023/10/10 06:20:47;;;;;;;17.80;11.50;;;;;;;;;;5073502;28;20404;-79
2023/10/10 06:23:18;;;;;;;20.00;11.27;;;;;;;;;;5073990;28;20399;-77
2023/10/10 06:25:45;;;;;;;18.30;11.07;;;;;;;;;;5073872;28;20487;-79
2023/10/10 06:28:25;;;;;;;22.80;12.07;;;;;;;;;;5073885;28;20407;-79
2023/10/10 06:30:55;;;;;;;19.10;12.07;;;;;;;;;;5073922;28;20803;-77
2023/10/10 06:33:27;;;;;;;23.33;13.53;;;;;;;;;;5073142;28;20897;-77
2023/10/10 06:36:01;;;;;;;19.57;13.57;;;;;;;;;;5055495;28;20411;-79
2023/10/10 06:38:27;;;;;;;21.30;12.77;;;;;;;;;;5073778;28;20416;-79
2023/10/10 06:40:53;;;;;;;21.40;10.90;;;;;;;;;;5073668;28;20407;-79
2023/10/10 06:43:25;;;;;;;22.17;13.43;;;;;;;;;;5055703;28;20770;-79
2023/10/10 06:45:56;;;;;;;20.93;13.03;;;;;;;;;;5073452;28;20455;-79
2023/10/10 06:48:24;;;;;;;17.40;12.90;;;;;;;;;;5055607;28;20908;-79
2023/10/10 06:50:50;;;;;;;20.43;12.00;;;;;;;;;;5072980;28;20305;-79
2023/10/10 06:53:35;;;;;;;21.50;12.00;;;;;;;;;;5073464;28;20404;-80
2023/10/10 06:56:14;;;;;;;19.50;11.40;;;;;;;;;;5073244;28;20447;-79
2023/10/10 06:58:43;;;;;;;19.47;12.80;;;;;;;;;;5071890;28;20459;-79
2023/10/10 07:01:11;;;;;;;19.20;12.30;;;;;;;;;;5055431;28;20781;-79
2023/10/10 07:03:39;;;;;;;23.90;14.53;;;;;;;;;;5073326;28;20400;-79
2023/10/10 07:06:08;;;;;;;22.70;15.20;;;;;;;;;;5072078;28;20907;-79
2023/10/10 07:08:34;;;;;;;22.90;14.27;;;;;;;;;;5073253;28;20173;-80
2023/10/10 07:11:04;;;;;;;19.73;12.83;;;;;;;;;;5073313;28;20420;-78
2023/10/10 07:13:30;;;;;;;19.37;12.57;;;;;;;;;;5073205;28;20878;-80
2023/10/10 07:15:57;;;;;;;18.80;12.70;;;;;;;;;;5073021;28;20395;-79
2023/10/10 07:18:23;;;;;;;20.13;13.30;;;;;;;;;;5073086;28;20407;-79
2023/10/10 07:21:17;;;;;;;21.40;14.03;;;;;;;;;;5054394;28;20408;-79
2023/10/10 07:26:47;;;;;;;19.87;13.00;;;;;;;;;;5038907;28;20467;-79
2023/10/10 07:29:57;;;;;;;18.87;12.90;;;;;;;;;;5073028;28;20767;-79
2023/10/10 07:32:17;;;;;;;20.90;13.57;;;;;;;;;;5072751;28;20415;-80
2023/10/10 07:34:50;;;;;;;20.03;12.53;;;;;;;;;;5072779;28;20430;-80
2023/10/10 07:37:17;;;;;;;20.37;14.30;;;;;;;;;;5072888;28;20411;-79
2023/10/10 07:39:55;;;;;;;21.27;13.17;;;;;;;;;;5072832;28;20904;-79
2023/10/10 07:42:27;;;;;;;25.30;14.00;;;;;;;;;;5072925;28;20501;-80
2023/10/10 07:44:56;;;;;;;24.70;12.63;;;;;;;;;;5072904;28;20411;-80
2023/10/10 07:47:26;;;;;;;21.30;15.67;;;;;;;;;;5076673;28;20840;-80
2023/10/10 07:49:55;;;;;;;24.07;15.20;;;;;;;;;;5076648;28;20407;-80
2023/10/10 07:52:27;;;;;;;21.10;13.03;;;;;;;;;;5076933;28;20431;-79
2023/10/10 07:54:54;;;;;;;18.63;12.80;;;;;;;;;;5076760;28;20411;-80
2023/10/10 07:57:29;;;;;;;18.57;13.00;;;;;;;;;;5076687;28;20864;-79
2023/10/10 07:59:58;;;;;;;20.67;13.00;;;;;;;;;;5076917;28;20439;-79
2023/10/10 08:02:34;;;;;;;17.50;11.40;;;;;;;;;;5076797;28;20403;-79
2023/10/10 08:05:09;;;;;;;22.90;13.30;;;;;;;;;;5076285;28;20433;-80
2023/10/10 08:07:35;;;;;;;18.30;12.00;;;;;;;;;;5076540;28;20822;-80
2023/10/10 08:10:14;;;;;;;19.50;13.03;;;;;;;;;;5076547;28;20414;-79
2023/10/10 08:12:40;;;;;;;20.87;11.83;;;;;;;;;;5058894;28;20941;-81
2023/10/10 08:15:19;;;;;;;21.00;12.77;;;;;;;;;;5076483;28;20738;-80
2023/10/10 08:17:52;;;;;;;17.17;11.00;;;;;;;;;;5076427;28;20485;-80
2023/10/10 08:23:04;;;;;;;18.03;11.03;;;;;;;;;;5076632;28;20459;-80
2023/10/10 08:25:30;;;;;;;21.20;10.57;;;;;;;;;;5076215;28;20428;-79
2023/10/10 08:27:58;;;;;;;20.77;12.37;;;;;;;;;;5076211;28;20912;-80
2023/10/10 08:30:27;;;;;;;17.37;10.30;;;;;;;;;;5076092;28;20424;-80
2023/10/10 08:32:54;;;;;;;19.13;11.67;;;;;;;;;;5076133;28;20440;-79
2023/10/10 08:35:21;;;;;;;17.80;11.83;;;;;;;;;;5075767;28;20440;-79
2023/10/10 08:37:47;;;;;;;16.50;10.23;;;;;;;;;;5076077;28;20410;-80
2023/10/10 08:40:19;;;;;;;16.37;11.00;;;;;;;;;;5075957;28;20399;-80
2023/10/10 08:42:45;;;;;;;14.30;10.03;;;;;;;;;;5075900;28;20413;-77
2023/10/10 08:45:22;;;;;;;15.60;9.90;;;;;;;;;;5075890;28;20747;-80
2023/10/10 08:47:48;;;;;;;15.70;9.63;;;;;;;;;;5075734;28;20479;-77
2023/10/10 08:50:15;;;;;;;11.53;8.00;;;;;;;;;;5075358;28;20416;-77
2023/10/10 08:52:41;;;;;;;12.00;7.57;;;;;;;;;;5075624;28;20410;-78
2023/10/10 08:55:10;;;;;;;8.23;5.43;;;;;;;;;;5075691;28;20414;-77
2023/10/10 08:57:38;;;;;;;6.10;4.57;;;;;;;;;;5075439;28;20327;-77
2023/10/10 09:00:11;;;;;;;5.50;3.23;;;;;;;;;;5075611;28;20417;-79
2023/10/10 09:02:39;;;;;;;6.37;4.10;;;;;;;;;;5075597;28;20445;-78
2023/10/10 09:05:06;;;;;;;5.67;3.67;;;;;;;;;;5075109;28;20507;-77
2023/10/10 09:07:32;;;;;;;5.60;4.10;;;;;;;;;;5075521;28;20469;-77
2023/10/10 09:10:04;;;;;;;5.13;3.00;;;;;;;;;;5057627;28;20422;-77
2023/10/10 09:12:32;;;;;;;8.30;4.73;;;;;;;;;;5075517;28;20422;-78
2023/10/10 09:15:11;;;;;;;9.93;5.63;;;;;;;;;;5075312;28;20409;-78
2023/10/10 09:17:40;;;;;;;6.37;5.23;;;;;;;;;;5075379;28;20404;-78
2023/10/10 09:20:39;;;;;;;9.07;5.33;;;;;;;;;;5074942;28;20411;-77
2023/10/10 09:23:21;;;;;;;9.70;4.80;;;;;;;;;;5072105;28;20421;-78
2023/10/10 09:26:09;;;;;;;7.90;7.13;;;;;;;;;;5057269;28;20405;-77
2023/10/10 09:29:26;;;;;;;9.43;5.33;;;;;;;;;;5075163;28;20417;-78
2023/10/10 09:31:45;;;;;;;8.33;5.40;;;;;;;;;;5071876;28;20477;-78
2023/10/10 09:34:12;;;;;;;9.70;6.27;;;;;;;;;;5057165;28;20461;-77
2023/10/10 09:36:50;;;;;;;6.70;4.50;;;;;;;;;;5056252;28;20820;-78
2023/10/10 09:42:22;;;;;;;7.80;5.00;;;;;;;;;;5074807;28;20443;-79
2023/10/10 09:52:53;;;;;;;6.80;6.03;;;;;;;;;;5074567;28;20446;-78
2023/10/10 09:58:15;;;;;;;8.27;5.70;;;;;;;;;;5074430;28;20469;-78
2023/10/10 10:09:08;;;;;;;7.13;5.17;;;;;;;;;;5073787;28;20782;-79
2023/10/10 10:11:38;;;;;;;7.43;4.33;;;;;;;;;;5074240;28;20391;-79
2023/10/10 10:14:22;;;;;;;4.60;3.77;;;;;;;;;;5074140;28;20445;-79
2023/10/10 10:16:52;;;;;;;5.20;4.00;;;;;;;;;;5074059;28;20394;-78
2023/10/10 10:19:20;;;;;;;5.67;3.33;;;;;;;;;;5073881;28;20442;-79
2023/10/10 10:21:56;;;;;;;6.17;3.30;;;;;;;;;;5073948;28;20802;-79
2023/10/10 10:24:32;;;;;;;4.93;3.77;;;;;;;;;;5074011;28;20452;-79
2023/10/10 10:27:39;;;;;;;3.47;2.20;;;;;;;;;;5073903;28;21001;-79
2023/10/10 10:32:55;;;;;;;4.80;2.83;;;;;;;;;;5074075;28;20419;-79
2023/10/10 10:35:22;;;;;;;2.93;2.20;;;;;;;;;;5073546;28;20402;-78
2023/10/10 10:37:58;;;;;;;3.70;2.17;;;;;;;;;;5078729;28;20801;-79
2023/10/10 10:40:42;;;;;;;4.30;1.90;;;;;;;;;;5094023;28;20443;-79
2023/10/10 10:43:14;;;;;;;4.93;1.80;;;;;;;;;;5093954;28;20418;-79
2023/10/10 10:45:44;;;;;;;3.27;1.60;;;;;;;;;;5093957;28;20765;-79
2023/10/10 10:48:29;;;;;;;4.77;2.00;;;;;;;;;;5082646;28;20437;-78
2023/10/10 10:50:59;;;;;;;3.60;1.73;;;;;;;;;;5070860;28;20913;-79
2023/10/10 10:53:31;;;;;;;3.13;2.03;;;;;;;;;;5072940;28;20410;-79
2023/10/10 10:59:11;;;;;;;2.00;1.80;;;;;;;;;;5073249;28;20466;-79
2023/10/10 11:01:42;;;;;;;3.07;1.87;;;;;;;;;;5072795;28;20407;-78
2023/10/10 11:04:17;;;;;;;3.90;2.20;;;;;;;;;;5072966;28;20851;-79
2023/10/10 11:07:03;;;;;;;2.40;2.20;;;;;;;;;;5073126;28;20520;-79
2023/10/10 11:09:30;;;;;;;6.33;2.70;;;;;;;;;;5073248;28;20403;-79
2023/10/10 11:12:02;;;;;;;3.70;2.70;;;;;;;;;;5073214;28;20407;-78
2023/10/10 11:14:32;;;;;;;3.07;2.40;;;;;;;;;;5073104;28;20408;-79
2023/10/10 11:16:58;;;;;;;2.43;1.93;;;;;;;;;;5073114;28;20441;-80
2023/10/10 11:19:38;;;;;;;2.40;1.40;;;;;;;;;;5072614;28;20974;-79
2023/10/10 11:22:05;;;;;;;3.43;1.90;;;;;;;;;;5072641;28;20504;-80
2023/10/10 11:24:32;;;;;;;3.60;1.90;;;;;;;;;;5072975;28;20405;-79
2023/10/10 11:29:41;;;;;;;5.13;1.20;;;;;;;;;;5072909;28;20509;-82
2023/10/10 11:32:08;;;;;;;3.20;1.47;;;;;;;;;;5072941;28;20399;-81
2023/10/10 11:34:46;;;;;;;5.33;1.70;;;;;;;;;;5072690;28;20406;-80
2023/10/10 11:37:21;;;;;;;1.80;1.17;;;;;;;;;;5073019;28;20403;-80
2023/10/10 11:39:49;;;;;;;1.93;0.90;;;;;;;;;;5073008;28;20791;-80
2023/10/10 11:42:26;;;;;;;3.37;0.80;;;;;;;;;;5072866;28;20411;-81
2023/10/10 11:44:53;;;;;;;3.47;0.87;;;;;;;;;;5054964;28;20411;-77
2023/10/10 11:47:26;;;;;;;5.73;1.33;;;;;;;;;;5068323;28;20634;-83
2023/10/10 11:50:00;;;;;;;1.37;0.50;;;;;;;;;;5072707;28;20482;-90
2023/10/10 11:52:27;;;;;;;1.73;0.90;;;;;;;;;;5073274;28;20414;-88
2023/10/10 11:54:55;;;;;;;2.90;0.87;;;;;;;;;;5073185;28;20841;-80
2023/10/10 11:57:20;;;;;;;1.40;0.50;;;;;;;;;;5073032;28;20542;-83
2023/10/10 11:59:47;;;;;;;1.50;0.73;;;;;;;;;;5071316;28;20506;-81
2023/10/10 12:02:29;;;;;;;2.47;0.97;;;;;;;;;;5072360;28;20206;-81
2023/10/10 12:04:55;;;;;;;1.30;0.80;;;;;;;;;;5072268;28;20422;-81
2023/10/10 12:07:24;;;;;;;3.53;0.70;;;;;;;;;;5072527;28;20565;-78
2023/10/10 12:09:51;;;;;;;2.63;0.67;;;;;;;;;;5072219;28;20172;-80
2023/10/10 12:12:17;;;;;;;1.90;0.60;;;;;;;;;;5072483;28;20419;-81
2023/10/10 12:14:43;;;;;;;3.93;0.87;;;;;;;;;;5072557;28;20404;-79
2023/10/10 12:17:10;;;;;;;1.90;1.07;;;;;;;;;;5072592;28;20415;-85
2023/10/10 12:19:36;;;;;;;2.80;0.70;;;;;;;;;;5072215;28;20332;-79
2023/10/10 12:22:08;;;;;;;1.53;0.53;;;;;;;;;;5071800;28;20412;-82
2023/10/10 12:24:35;;;;;;;2.03;0.50;;;;;;;;;;5069848;28;20418;-80
2023/10/10 12:27:01;;;;;;;1.30;0.37;;;;;;;;;;5072294;28;20493;-80
2023/10/10 12:29:30;;;;;;;2.00;0.60;;;;;;;;;;5054339;28;20416;-81
2023/10/10 12:31:56;;;;;;;1.70;0.50;;;;;;;;;;5071465;28;20459;-81
2023/10/10 12:34:23;;;;;;;3.13;1.10;;;;;;;;;;5056257;28;20487;-84
2023/10/10 12:37:01;;;;;;;2.80;0.77;;;;;;;;;;5056288;28;20408;-85
2023/10/10 12:39:27;;;;;;;1.93;0.73;;;;;;;;;;5056106;28;20491;-79
2023/10/10 12:42:00;;;;;;;2.20;0.63;;;;;;;;;;5055905;28;20856;-79
2023/10/10 12:44:26;;;;;;;6.43;1.37;;;;;;;;;;5056176;28;20416;-88
2023/10/10 12:46:58;;;;;;;1.93;1.17;;;;;;;;;;5056091;28;20486;-85
2023/10/10 12:49:36;;;;;;;3.77;1.47;;;;;;;;;;5055613;28;20174;-82
2023/10/10 12:52:11;;;;;;;2.33;0.50;;;;;;;;;;5055744;28;20427;-78
2023/10/10 12:54:37;;;;;;;3.43;1.60;;;;;;;;;;5055715;28;20454;-82
2023/10/10 12:57:06;;;;;;;1.93;1.13;;;;;;;;;;5055457;28;20801;-78
2023/10/10 12:59:46;;;;;;;3.00;1.10;;;;;;;;;;5067059;28;20454;-88
2023/10/10 13:02:15;;;;;;;2.13;0.73;;;;;;;;;;5060296;28;20432;-81
2023/10/10 13:04:45;;;;;;;2.30;0.80;;;;;;;;;;5074859;28;20414;-86
2023/10/10 13:07:12;;;;;;;1.70;0.90;;;;;;;;;;5075613;28;20564;-86
2023/10/10 13:09:43;;;;;;;4.20;1.83;;;;;;;;;;5076057;28;20407;-80
2023/10/10 13:12:09;;;;;;;5.13;2.40;;;;;;;;;;5075403;28;20506;-83
2023/10/10 13:14:36;;;;;;;3.17;1.50;;;;;;;;;;5075348;28;20413;-87
2023/10/10 13:20:05;;;;;;;3.77;1.77;;;;;;;;;;5004668;28;20434;-81
2023/10/10 13:22:30;;;;;;;2.77;2.33;;;;;;;;;;5042142;28;20949;-82
2023/10/10 13:24:56;;;;;;;3.80;2.10;;;;;;;;;;5057481;28;20413;-83
2023/10/10 13:27:25;;;;;;;2.43;2.20;;;;;;;;;;5074448;28;20209;-81
2023/10/10 13:29:53;;;;;;;6.10;2.63;;;;;;;;;;5074548;28;20433;-84
2023/10/10 13:32:20;;;;;;;3.13;1.40;;;;;;;;;;5074257;28;20490;-81
2023/10/10 13:34:46;;;;;;;3.23;2.00;;;;;;;;;;5056236;28;20417;-80
2023/10/10 13:37:12;;;;;;;3.60;1.63;;;;;;;;;;5056819;28;20433;-83
2023/10/10 13:39:47;;;;;;;2.77;1.57;;;;;;;;;;5074804;28;20420;-80
2023/10/10 13:42:17;;;;;;;3.30;2.37;;;;;;;;;;5056527;28;20212;-82
2023/10/10 13:44:43;;;;;;;4.60;2.53;;;;;;;;;;5073646;28;20442;-84
2023/10/10 13:47:10;;;;;;;3.53;2.27;;;;;;;;;;5074474;28;20485;-83
2023/10/10 13:49:44;;;;;;;5.23;3.43;;;;;;;;;;5074023;28;20929;-82
2023/10/10 13:52:11;;;;;;;3.50;2.43;;;;;;;;;;5074789;28;20785;-90
2023/10/10 13:54:37;;;;;;;4.33;2.60;;;;;;;;;;5074371;28;20443;-89
2023/10/10 13:57:03;;;;;;;5.03;2.77;;;;;;;;;;5074380;28;20463;-91
2023/10/10 13:59:29;;;;;;;4.20;2.50;;;;;;;;;;5074551;28;20177;-79
2023/10/10 14:01:58;;;;;;;5.10;2.70;;;;;;;;;;5074117;28;20413;-79
2023/10/10 14:04:26;;;;;;;5.27;3.70;;;;;;;;;;5074011;28;20166;-88
2023/10/10 14:06:54;;;;;;;5.90;4.20;;;;;;;;;;5073586;28;20459;-86
2023/10/10 14:09:31;;;;;;;5.10;3.27;;;;;;;;;;5073892;28;20465;-89
2023/10/10 14:12:01;;;;;;;7.67;3.80;;;;;;;;;;5073894;28;20422;-80
2023/10/10 14:14:28;;;;;;;5.80;3.33;;;;;;;;;;5073737;28;20416;-80
2023/10/10 14:16:54;;;;;;;5.03;4.13;;;;;;;;;;5073954;28;20468;-90
2023/10/10 14:19:23;;;;;;;5.73;3.90;;;;;;;;;;5073224;28;20455;-80
2023/10/10 14:21:52;;;;;;;5.97;3.67;;;;;;;;;;5073835;28;20172;-80
2023/10/10 14:24:18;;;;;;;7.73;4.43;;;;;;;;;;5073436;28;20430;-81
2023/10/10 14:26:44;;;;;;;5.13;4.40;;;;;;;;;;5073467;28;20470;-84
2023/10/10 14:29:13;;;;;;;5.30;4.80;;;;;;;;;;5074230;28;20812;-79
2023/10/10 14:31:42;;;;;;;11.20;5.67;;;;;;;;;;5073443;28;20420;-79
2023/10/10 14:34:11;;;;;;;5.87;4.40;;;;;;;;;;5072777;28;20403;-80
2023/10/10 14:36:40;;;;;;;6.23;5.03;;;;;;;;;;5053101;28;20460;-80
2023/10/10 14:39:27;;;;;;;5.23;4.60;;;;;;;;;;5068798;28;20911;-81
2023/10/10 14:41:54;;;;;;;7.30;5.33;;;;;;;;;;5069320;28;20749;-87
2023/10/10 14:44:21;;;;;;;5.33;4.57;;;;;;;;;;5069755;28;20419;-87
2023/10/10 14:46:47;;;;;;;6.70;4.67;;;;;;;;;;5067097;28;20455;-92
2023/10/10 14:49:16;;;;;;;6.40;5.20;;;;;;;;;;5070474;28;20823;-87
2023/10/10 14:51:48;;;;;;;7.23;5.73;;;;;;;;;;5057950;28;20228;-91
2023/10/10 14:54:17;;;;;;;12.83;6.20;;;;;;;;;;5073541;28;20427;-90
2023/10/10 14:56:49;;;;;;;5.77;4.43;;;;;;;;;;5069270;28;20935;-89
2023/10/10 14:59:20;;;;;;;7.63;6.67;;;;;;;;;;5074989;28;20399;-91
2023/10/10 15:01:50;;;;;;;10.83;7.87;;;;;;;;;;5077306;28;20414;-85
2023/10/10 15:04:17;;;;;;;7.47;6.73;;;;;;;;;;5055826;28;20491;-87
2023/10/10 15:06:44;;;;;;;8.20;7.00;;;;;;;;;;5056156;28;20540;-92
2023/10/10 15:09:20;;;;;;;8.23;7.40;;;;;;;;;;5055760;28;20814;-91
2023/10/10 15:11:46;;;;;;;10.77;8.37;;;;;;;;;;5056756;28;20468;-93
2023/10/10 15:14:12;;;;;;;10.53;7.73;;;;;;;;;;5055858;28;20474;-89
2023/10/10 15:16:39;;;;;;;13.20;7.90;;;;;;;;;;5070854;28;20411;-88
2023/10/10 15:19:07;;;;;;;17.03;9.77;;;;;;;;;;5072284;28;20411;-87
2023/10/10 15:21:36;;;;;;;10.90;8.97;;;;;;;;;;5073530;28;20423;-86
2023/10/10 15:24:03;;;;;;;11.77;10.03;;;;;;;;;;5075421;28;20425;-90
2023/10/10 15:26:30;;;;;;;13.00;10.10;;;;;;;;;;5073395;28;20465;-91
2023/10/10 15:28:56;;;;;;;16.50;11.07;;;;;;;;;;5071502;28;20498;-87
2023/10/10 15:31:27;;;;;;;14.77;10.50;;;;;;;;;;5072683;28;20431;-85
2023/10/10 15:33:53;;;;;;;17.90;12.30;;;;;;;;;;5075368;28;20486;-92
2023/10/10 15:36:19;;;;;;;16.60;12.23;;;;;;;;;;5074763;28;20403;-85
2023/10/10 15:38:45;;;;;;;15.93;13.70;;;;;;;;;;5069522;28;20632;-94
2023/10/10 15:41:23;;;;;;;18.80;12.77;;;;;;;;;;5075409;28;20418;-91
2023/10/10 15:43:49;;;;;;;16.63;14.13;;;;;;;;;;5071059;28;20441;-87
2023/10/10 15:46:15;;;;;;;14.00;12.10;;;;;;;;;;5054724;28;20893;-84
2023/10/10 15:48:50;;;;;;;17.23;14.00;;;;;;;;;;5073191;28;20459;-91
2023/10/10 15:51:17;;;;;;;18.23;14.47;;;;;;;;;;5073070;28;20478;-86
2023/10/10 15:53:43;;;;;;;18.77;13.80;;;;;;;;;;5072791;28;20412;-86
2023/10/10 15:56:11;;;;;;;19.30;15.83;;;;;;;;;;5054523;28;20410;-87
2023/10/10 15:58:39;;;;;;;26.20;17.67;;;;;;;;;;5055100;28;20502;-87
2023/10/10 16:01:14;;;;;;;20.00;15.50;;;;;;;;;;5072483;28;20410;-92
2023/10/10 16:03:47;;;;;;;20.00;15.23;;;;;;;;;;5074546;28;20509;-88
2023/10/10 16:06:14;;;;;;;22.87;15.93;;;;;;;;;;5074761;28;20451;-88
2023/10/10 16:08:40;;;;;;;27.20;17.50;;;;;;;;;;5078154;28;20446;-93
2023/10/10 16:11:06;;;;;;;20.50;16.90;;;;;;;;;;5078380;28;20497;-94
2023/10/10 16:13:36;;;;;;;22.63;16.13;;;;;;;;;;5077712;28;20572;-87
2023/10/10 16:16:05;;;;;;;23.03;16.83;;;;;;;;;;5073686;28;20417;-90
2023/10/10 16:18:33;;;;;;;22.83;17.47;;;;;;;;;;5078222;28;20844;-86
2023/10/10 16:20:59;;;;;;;23.37;16.30;;;;;;;;;;5077078;28;20406;-87
2023/10/10 16:23:25;;;;;;;23.80;17.80;;;;;;;;;;5059236;28;20791;-92
2023/10/10 16:25:51;;;;;;;23.30;19.03;;;;;;;;;;5073250;28;20418;-93
2023/10/10 16:28:18;;;;;;;28.43;19.27;;;;;;;;;;5079052;28;20715;-87
2023/10/10 16:30:44;;;;;;;27.00;18.67;;;;;;;;;;5077609;28;20406;-90
2023/10/10 16:33:10;;;;;;;23.00;18.10;;;;;;;;;;5076687;28;20632;-89
2023/10/10 16:35:40;;;;;;;28.50;19.33;;;;;;;;;;5058371;28;20434;-87
2023/10/10 16:38:06;;;;;;;27.00;19.80;;;;;;;;;;5078298;28;20757;-84
2023/10/10 16:40:32;;;;;;;24.47;18.97;;;;;;;;;;5079854;28;20444;-86
2023/10/10 16:42:58;;;;;;;25.77;19.70;;;;;;;;;;5080694;28;20173;-87
2023/10/10 16:45:24;;;;;;;26.60;19.93;;;;;;;;;;5080892;28;20234;-91
2023/10/10 16:47:51;;;;;;;27.57;18.77;;;;;;;;;;5080851;28;20285;-84
2023/10/10 16:50:17;;;;;;;23.73;19.40;;;;;;;;;;5080289;28;20416;-85
2023/10/10 16:52:43;;;;;;;27.97;22.53;;;;;;;;;;5082950;28;20419;-86
2023/10/10 16:55:13;;;;;;;24.83;20.90;;;;;;;;;;5064673;28;20414;-86
2023/10/10 16:57:40;;;;;;;22.90;19.10;;;;;;;;;;5081214;28;20214;-86
2023/10/10 17:00:12;;;;;;;28.10;19.87;;;;;;;;;;5080779;28;20461;-86
2023/10/10 17:02:39;;;;;;;29.37;20.17;;;;;;;;;;5080435;28;20403;-89
2023/10/10 17:05:11;;;;;;;26.00;20.80;;;;;;;;;;5061584;28;20428;-89
2023/10/10 17:07:37;;;;;;;33.43;22.20;;;;;;;;;;5058565;28;20470;-84
2023/10/10 17:10:05;;;;;;;28.23;19.80;;;;;;;;;;5072428;28;20424;-87
2023/10/10 17:12:31;;;;;;;28.77;20.20;;;;;;;;;;5073568;28;20487;-87
2023/10/10 17:14:57;;;;;;;29.73;20.00;;;;;;;;;;5065739;28;20790;-92
2023/10/10 17:17:24;;;;;;;23.13;20.43;;;;;;;;;;5076974;28;20414;-86
2023/10/10 17:19:53;;;;;;;29.50;21.17;;;;;;;;;;5076728;28;20415;-90
2023/10/10 17:22:20;;;;;;;25.33;20.40;;;;;;;;;;5061467;28;20441;-87
2023/10/10 17:24:47;;;;;;;28.33;22.47;;;;;;;;;;5078623;28;20410;-84
2023/10/10 17:27:13;;;;;;;25.47;19.47;;;;;;;;;;5077595;28;20473;-90
2023/10/10 17:29:38;;;;;;;25.83;19.43;;;;;;;;;;5060265;28;20528;-86
2023/10/10 17:32:05;;;;;;;26.60;21.70;;;;;;;;;;5061561;28;20187;-84